Time;durP1;ratioP1;P1;durP2;ratioP2;P2;SDS_P1;SDS_P2;PMS_P1;PMS_P2;Temp;Humidity;BMP_temperature;BMP_pressure;BME280_temperature;BME280_humidity;BME280_pressure;Samples;Min_cycle;Max_cycle;Signal;HPM_P1;HPM_P2
2023/05/10 00:01:46;;;;;;;53.13;49.63;;;12.70;99.90;;;;;;4983863;28;20054;-72
2023/05/10 00:04:12;;;;;;;54.88;51.42;;;12.70;99.90;;;;;;4975799;28;20069;-72
2023/05/10 00:06:37;;;;;;;56.03;52.58;;;12.70;99.90;;;;;;4981746;28;20039;-72
2023/05/10 00:09:03;;;;;;;55.58;52.00;;;12.60;99.90;;;;;;4986825;28;20104;-72
2023/05/10 00:11:29;;;;;;;56.42;52.75;;;12.60;99.90;;;;;;4998089;28;20101;-73
2023/05/10 00:13:54;;;;;;;58.63;55.38;;;12.60;99.90;;;;;;4986681;28;20046;-72
2023/05/10 00:16:20;;;;;;;57.33;53.92;;;12.60;99.90;;;;;;5002805;28;20125;-72
2023/05/10 00:18:46;;;;;;;58.70;55.33;;;12.60;99.90;;;;;;4987286;28;20038;-72
2023/05/10 00:21:11;;;;;;;64.18;60.42;;;12.60;99.90;;;;;;4976021;28;20069;-72
2023/05/10 00:23:37;;;;;;;67.45;63.63;;;12.60;99.90;;;;;;4968964;28;20499;-72
2023/05/10 00:26:03;;;;;;;69.80;65.85;;;12.60;99.90;;;;;;4970851;28;20037;-72
2023/05/10 00:28:29;;;;;;;65.57;61.92;;;12.60;99.90;;;;;;4985257;28;20557;-72
2023/05/10 00:30:55;;;;;;;69.93;65.97;;;12.60;99.90;;;;;;4987010;28;20114;-72
2023/05/10 00:33:20;;;;;;;63.53;59.92;;;12.60;99.90;;;;;;4985535;28;20566;-72
2023/05/10 00:35:46;;;;;;;61.13;57.50;;;12.60;99.90;;;;;;4986570;28;20034;-72
2023/05/10 00:38:12;;;;;;;63.58;59.95;;;12.60;99.90;;;;;;4985654;28;20042;-72
2023/05/10 00:40:38;;;;;;;73.45;69.38;;;12.60;99.90;;;;;;4971525;28;20042;-72
2023/05/10 00:43:03;;;;;;;92.75;87.85;;;12.60;99.90;;;;;;4986466;28;20603;-72
2023/05/10 00:45:31;;;;;;;72.05;67.85;;;12.60;99.90;;;;;;4993338;28;20156;-73
2023/05/10 00:47:56;;;;;;;76.40;71.97;;;12.60;99.90;;;;;;4983403;28;20498;-73
2023/05/10 00:50:23;;;;;;;74.55;70.10;;;12.50;99.90;;;;;;4969109;28;20046;-72
2023/05/10 00:52:49;;;;;;;74.43;70.10;;;12.50;99.90;;;;;;4984974;28;20054;-72
2023/05/10 00:55:15;;;;;;;75.38;70.78;;;12.50;99.90;;;;;;4986481;28;20034;-72
2023/05/10 00:57:42;;;;;;;74.05;69.88;;;12.40;99.90;;;;;;4977540;28;20045;-73
2023/05/10 01:00:08;;;;;;;76.25;71.80;;;12.40;99.90;;;;;;4980974;28;20069;-72
2023/05/10 01:02:35;;;;;;;69.03;64.85;;;12.40;99.90;;;;;;4985460;28;20181;-73
2023/05/10 01:05:03;;;;;;;81.43;76.65;;;12.40;99.90;;;;;;4984918;28;20123;-73
2023/05/10 01:07:29;;;;;;;85.82;80.85;;;12.30;99.90;;;;;;4983058;28;20046;-72
2023/05/10 01:09:55;;;;;;;89.47;84.13;;;12.30;99.90;;;;;;4984545;28;20511;-72
2023/05/10 01:12:21;;;;;;;84.85;80.18;;;12.30;99.90;;;;;;4984493;28;20049;-72
2023/05/10 01:14:47;;;;;;;87.47;82.55;;;12.30;99.90;;;;;;4975607;28;20700;-73
2023/05/10 01:17:13;;;;;;;87.85;82.85;;;12.30;99.90;;;;;;4988896;28;20394;-72
2023/05/10 01:19:39;;;;;;;86.95;82.00;;;12.30;99.90;;;;;;4987977;28;20065;-72
2023/05/10 01:22:22;;;;;;;87.97;82.93;;;12.30;99.90;;;;;;4990559;28;20125;-72
2023/05/10 01:25:22;;;;;;;78.38;73.80;;;12.30;99.90;;;;;;4974288;28;20053;-73
2023/05/10 01:28:29;;;;;;;81.55;77.00;;;12.20;99.90;;;;;;4988621;28;20046;-72
2023/05/10 01:31:04;;;;;;;79.75;75.07;;;12.30;99.90;;;;;;4987546;28;20045;-73
2023/05/10 01:33:50;;;;;;;91.55;86.45;;;12.30;99.90;;;;;;4975624;28;20061;-72
2023/05/10 01:36:34;;;;;;;85.63;80.88;;;12.20;99.90;;;;;;4965217;28;20061;-73
2023/05/10 01:39:00;;;;;;;;;;;12.30;99.90;;;;;;4987826;28;20046;-73
2023/05/10 01:41:44;;;;;;;83.18;78.45;;;12.30;99.90;;;;;;4988126;28;19922;-72
2023/05/10 01:44:28;;;;;;;85.13;80.10;;;12.20;99.90;;;;;;4989754;28;20046;-73
2023/05/10 01:47:10;;;;;;;84.70;80.18;;;12.20;99.90;;;;;;4987231;28;20457;-72
2023/05/10 01:49:58;;;;;;;87.32;82.28;;;12.30;99.90;;;;;;4988769;28;20057;-72
2023/05/10 01:52:32;;;;;;;86.35;81.05;;;12.20;99.90;;;;;;4977176;28;20137;-73
2023/05/10 01:55:15;;;;;;;77.72;73.28;;;12.20;99.90;;;;;;5004473;28;20046;-73
2023/05/10 01:57:44;;;;;;;81.72;76.90;;;12.30;99.90;;;;;;4971100;28;20053;-72
2023/05/10 02:00:11;;;;;;;80.50;75.90;;;12.30;99.90;;;;;;4988434;28;20053;-73
2023/05/10 02:02:39;;;;;;;79.10;74.25;;;12.20;99.90;;;;;;4989110;28;20120;-72
2023/05/10 02:05:06;;;;;;;87.28;82.22;;;12.30;99.90;;;;;;4988555;28;20133;-73
2023/05/10 02:07:35;;;;;;;79.03;74.53;;;12.30;99.90;;;;;;4987533;28;20097;-73
2023/05/10 02:10:04;;;;;;;83.05;78.15;;;12.30;99.90;;;;;;4982099;28;20089;-73
2023/05/10 02:12:34;;;;;;;76.80;72.22;;;12.30;99.90;;;;;;4969745;28;20479;-72
2023/05/10 02:15:02;;;;;;;91.47;86.25;;;12.30;99.90;;;;;;4973385;28;20049;-73
2023/05/10 02:17:29;;;;;;;96.63;90.85;;;12.30;99.90;;;;;;4982815;28;20043;-72
2023/05/10 02:19:56;;;;;;;87.07;82.03;;;12.30;99.90;;;;;;4985677;28;20791;-73
2023/05/10 02:22:22;;;;;;;83.93;79.13;;;12.30;99.90;;;;;;4988256;28;20077;-72
2023/05/10 02:24:50;;;;;;;91.75;86.57;;;12.20;99.90;;;;;;4986201;28;20175;-72
2023/05/10 02:27:17;;;;;;;85.32;80.38;;;12.30;99.90;;;;;;4983618;28;20042;-73
2023/05/10 02:29:44;;;;;;;91.90;86.35;;;12.30;99.90;;;;;;4990160;28;20455;-72
2023/05/10 02:32:11;;;;;;;82.97;77.70;;;12.30;99.90;;;;;;4988359;28;20050;-72
2023/05/10 02:34:37;;;;;;;80.68;75.22;;;12.30;99.90;;;;;;4987339;28;20569;-72
2023/05/10 02:37:04;;;;;;;87.45;82.03;;;12.30;99.90;;;;;;4988028;28;20471;-72
2023/05/10 02:39:31;;;;;;;92.03;86.10;;;12.30;99.90;;;;;;4988201;28;20042;-72
2023/05/10 02:41:58;;;;;;;76.82;71.18;;;12.30;99.90;;;;;;4975112;28;20409;-73
2023/05/10 02:44:25;;;;;;;77.80;72.35;;;12.30;99.90;;;;;;4980600;28;20085;-72
2023/05/10 02:46:51;;;;;;;85.93;79.63;;;12.30;99.90;;;;;;4988858;28;20411;-72
2023/05/10 02:49:17;;;;;;;78.53;72.88;;;12.30;99.90;;;;;;4986539;28;20041;-72
2023/05/10 02:51:51;;;;;;;71.30;65.65;;;12.30;99.90;;;;;;4988011;28;20042;-72
2023/05/10 02:54:20;;;;;;;69.43;63.70;;;12.30;99.90;;;;;;4970903;28;20073;-72
2023/05/10 02:56:57;;;;;;;83.28;76.80;;;12.30;99.90;;;;;;4986534;28;20042;-72
2023/05/10 02:59:22;;;;;;;75.38;69.07;;;12.30;99.90;;;;;;4988128;28;20046;-72
2023/05/10 03:01:48;;;;;;;63.13;57.63;;;12.30;99.90;;;;;;4962344;28;20050;-72
2023/05/10 03:04:14;;;;;;;79.43;73.32;;;12.30;99.90;;;;;;4986390;28;20053;-72
2023/05/10 03:06:40;;;;;;;67.38;61.45;;;12.30;99.90;;;;;;4972142;28;20050;-72
2023/05/10 03:09:09;;;;;;;77.47;71.03;;;12.30;99.90;;;;;;4987083;28;20050;-72
2023/05/10 03:11:45;;;;;;;85.05;77.88;;;12.30;99.90;;;;;;4972184;28;20383;-72
2023/05/10 03:14:25;;;;;;;79.28;72.22;;;12.30;99.90;;;;;;4989014;28;20073;-72
2023/05/10 03:17:00;;;;;;;86.22;78.18;;;12.30;99.90;;;;;;4985476;28;20038;-72
2023/05/10 03:19:52;;;;;;;;;;;12.30;99.90;;;;;;4977283;28;20034;-72
2023/05/10 03:22:26;;;;;;;80.82;73.28;;;12.30;99.90;;;;;;4986106;28;19957;-72
2023/05/10 03:24:56;;;;;;;80.55;73.50;;;12.30;99.90;;;;;;4988218;28;20042;-72
2023/05/10 03:27:25;;;;;;;73.32;66.25;;;12.30;99.90;;;;;;4987099;28;20068;-72
2023/05/10 03:29:52;;;;;;;80.95;74.15;;;12.30;99.90;;;;;;4971085;28;20088;-73
2023/05/10 03:32:18;;;;;;;89.93;81.30;;;12.30;99.90;;;;;;4987875;28;20054;-72
2023/05/10 03:34:43;;;;;;;72.10;64.90;;;12.30;99.90;;;;;;4983474;28;20043;-72
2023/05/10 03:37:09;;;;;;;78.68;71.40;;;12.30;99.90;;;;;;4960238;28;20095;-72
2023/05/10 03:39:35;;;;;;;79.25;72.45;;;12.30;99.90;;;;;;4987675;28;20063;-72
2023/05/10 03:42:01;;;;;;;67.93;61.95;;;12.30;99.90;;;;;;4987404;28;20046;-72
2023/05/10 03:44:26;;;;;;;77.68;71.45;;;12.30;99.90;;;;;;4989540;28;20042;-72
2023/05/10 03:46:52;;;;;;;89.53;82.70;;;12.30;99.90;;;;;;4985519;28;20042;-72
2023/05/10 03:49:18;;;;;;;83.10;76.05;;;12.30;99.90;;;;;;4987114;28;20066;-72
2023/05/10 03:51:43;;;;;;;72.35;66.50;;;12.30;99.90;;;;;;4986315;28;20038;-72
2023/05/10 03:54:09;;;;;;;73.30;67.28;;;12.30;99.90;;;;;;4978170;28;20133;-72
2023/05/10 03:56:35;;;;;;;80.00;74.05;;;12.20;99.90;;;;;;4986548;28;20069;-72
2023/05/10 03:59:00;;;;;;;73.25;67.18;;;12.30;99.90;;;;;;4970733;28;20070;-72
2023/05/10 04:01:26;;;;;;;82.55;76.53;;;12.30;99.90;;;;;;4985794;28;20081;-72
2023/05/10 04:03:51;;;;;;;91.57;84.75;;;12.30;99.90;;;;;;4986190;28;20046;-72
2023/05/10 04:06:17;;;;;;;104.18;96.93;;;12.30;99.90;;;;;;4987158;28;20046;-72
2023/05/10 04:08:43;;;;;;;102.10;95.05;;;12.20;99.90;;;;;;4984866;28;20490;-73
2023/05/10 04:11:12;;;;;;;97.88;91.55;;;12.20;99.90;;;;;;4978972;28;20050;-73
2023/05/10 04:13:38;;;;;;;88.82;83.38;;;12.20;99.90;;;;;;4960769;28;20070;-73
2023/05/10 04:16:04;;;;;;;97.88;91.65;;;12.20;99.90;;;;;;4987229;28;20119;-73
2023/05/10 04:18:31;;;;;;;99.93;93.72;;;12.20;99.90;;;;;;4983443;28;20041;-73
2023/05/10 04:20:57;;;;;;;108.88;102.45;;;12.20;99.90;;;;;;4987116;28;20046;-72
2023/05/10 04:23:23;;;;;;;102.40;96.75;;;12.20;99.90;;;;;;4987195;28;20053;-72
2023/05/10 04:25:48;;;;;;;113.47;106.63;;;12.20;99.90;;;;;;4985828;28;20038;-72
2023/05/10 04:28:14;;;;;;;138.75;130.27;;;12.20;99.90;;;;;;4975671;28;20512;-72
2023/05/10 04:30:40;;;;;;;126.30;119.07;;;12.20;99.90;;;;;;4987334;28;20598;-72
2023/05/10 04:33:06;;;;;;;130.93;124.20;;;12.20;99.90;;;;;;4985148;28;20058;-72
2023/05/10 04:35:31;;;;;;;118.43;112.63;;;12.20;99.90;;;;;;4970147;28;20065;-72
2023/05/10 04:37:57;;;;;;;108.30;103.20;;;12.20;99.90;;;;;;4986258;28;20062;-72
2023/05/10 04:40:22;;;;;;;122.88;117.03;;;12.20;99.90;;;;;;4985344;28;20478;-72
2023/05/10 04:42:48;;;;;;;121.97;116.38;;;12.20;99.90;;;;;;4985481;28;20542;-72
2023/05/10 04:45:16;;;;;;;146.10;139.63;;;12.20;99.90;;;;;;4979109;28;20068;-72
2023/05/10 04:47:42;;;;;;;168.30;160.82;;;12.10;99.90;;;;;;4983250;28;20085;-72
2023/05/10 04:50:08;;;;;;;172.65;164.80;;;12.10;99.90;;;;;;4986463;28;20042;-72
2023/05/10 04:52:33;;;;;;;177.82;170.07;;;12.10;99.90;;;;;;4985274;28;20046;-73
2023/05/10 04:54:59;;;;;;;182.10;174.20;;;12.10;99.90;;;;;;4986285;28;20125;-72
2023/05/10 04:57:25;;;;;;;165.02;157.55;;;12.10;99.90;;;;;;4986249;28;20466;-72
2023/05/10 04:59:51;;;;;;;132.88;126.65;;;12.10;99.90;;;;;;4976056;28;20467;-72
2023/05/10 05:02:16;;;;;;;136.05;129.65;;;12.10;99.90;;;;;;4982961;28;20070;-72
2023/05/10 05:04:42;;;;;;;149.50;142.27;;;12.10;99.90;;;;;;4983745;28;20096;-72
2023/05/10 05:07:07;;;;;;;146.00;139.13;;;12.10;99.90;;;;;;4982460;28;20042;-72
2023/05/10 05:09:33;;;;;;;161.57;153.55;;;12.10;99.90;;;;;;4984857;28;20042;-72
2023/05/10 05:11:59;;;;;;;148.73;141.55;;;12.10;99.90;;;;;;4969200;28;20149;-72
2023/05/10 05:14:25;;;;;;;160.55;153.32;;;12.10;99.90;;;;;;4983728;28;20038;-72
2023/05/10 05:16:53;;;;;;;176.73;168.32;;;12.10;99.90;;;;;;4973110;28;20038;-72
2023/05/10 05:19:19;;;;;;;227.55;217.52;;;12.10;99.90;;;;;;4962595;28;20045;-72
2023/05/10 05:21:44;;;;;;;237.32;226.27;;;12.10;99.90;;;;;;4980972;28;20562;-72
2023/05/10 05:24:12;;;;;;;205.43;195.82;;;12.10;99.90;;;;;;4985620;28;20053;-71
2023/05/10 05:26:38;;;;;;;191.55;182.40;;;12.10;99.90;;;;;;4983511;28;20034;-72
2023/05/10 05:29:04;;;;;;;189.85;180.52;;;12.10;99.90;;;;;;4985680;28;20520;-72
2023/05/10 05:31:29;;;;;;;191.50;182.88;;;12.10;99.90;;;;;;4984797;28;20431;-72
2023/05/10 05:33:55;;;;;;;180.32;171.45;;;12.20;99.90;;;;;;4976387;28;20054;-72
2023/05/10 05:36:21;;;;;;;184.25;175.82;;;12.20;99.90;;;;;;4986811;28;20042;-72
2023/05/10 05:38:47;;;;;;;166.95;159.13;;;12.20;99.90;;;;;;4988388;28;20046;-72
2023/05/10 05:41:13;;;;;;;190.38;181.38;;;12.20;99.90;;;;;;4985731;28;20050;-72
2023/05/10 05:43:38;;;;;;;182.00;173.43;;;12.20;99.90;;;;;;4980363;28;20038;-72
2023/05/10 05:46:04;;;;;;;184.50;175.32;;;12.20;99.90;;;;;;4969268;28;20053;-72
2023/05/10 05:48:30;;;;;;;202.18;191.80;;;12.20;99.90;;;;;;4983557;28;20133;-72
2023/05/10 05:50:56;;;;;;;198.13;188.38;;;12.30;99.90;;;;;;4968996;28;20038;-72
2023/05/10 05:53:23;;;;;;;172.50;163.70;;;12.30;99.90;;;;;;4971533;28;20054;-72
2023/05/10 05:55:56;;;;;;;180.30;170.75;;;12.30;99.90;;;;;;4969954;28;20141;-72
2023/05/10 05:58:22;;;;;;;180.90;170.63;;;12.30;99.90;;;;;;4983954;28;20062;-72
2023/05/10 06:00:48;;;;;;;168.38;158.63;;;12.30;99.90;;;;;;4989241;28;20453;-72
2023/05/10 06:03:14;;;;;;;164.85;154.88;;;12.30;99.90;;;;;;4988038;28;20199;-72
2023/05/10 06:05:40;;;;;;;136.32;127.45;;;12.30;99.90;;;;;;5005109;28;20161;-72
2023/05/10 06:08:05;;;;;;;118.75;111.20;;;12.30;99.90;;;;;;4989367;28;20042;-71
2023/05/10 06:10:31;;;;;;;129.88;121.50;;;12.20;99.90;;;;;;4964175;28;20046;-71
2023/05/10 06:12:57;;;;;;;107.35;100.10;;;12.20;99.90;;;;;;4988747;28;20042;-71
2023/05/10 06:15:22;;;;;;;98.60;91.88;;;12.20;99.90;;;;;;4989054;28;20050;-72
2023/05/10 06:17:49;;;;;;;93.90;87.70;;;12.20;99.90;;;;;;4990149;28;20054;-72
2023/05/10 06:20:15;;;;;;;111.35;104.75;;;12.10;99.90;;;;;;4973795;28;20046;-72
2023/05/10 06:22:41;;;;;;;119.32;112.55;;;12.20;99.90;;;;;;4987503;28;20046;-72
2023/05/10 06:25:07;;;;;;;147.82;139.73;;;12.10;99.90;;;;;;4988048;28;20093;-71
2023/05/10 06:27:33;;;;;;;146.52;139.15;;;12.10;99.90;;;;;;4989671;28;20049;-72
2023/05/10 06:29:59;;;;;;;166.82;158.93;;;12.10;99.90;;;;;;4979891;28;20038;-72
2023/05/10 06:32:24;;;;;;;132.60;126.25;;;12.10;99.90;;;;;;4989669;28;20060;-72
2023/05/10 06:34:50;;;;;;;191.05;182.50;;;12.10;99.90;;;;;;4988397;28;20361;-72
2023/05/10 06:37:15;;;;;;;143.82;137.65;;;12.20;99.90;;;;;;4988732;28;20037;-72
2023/05/10 06:39:41;;;;;;;179.52;171.80;;;12.20;99.90;;;;;;4989530;28;20042;-72
2023/05/10 06:42:07;;;;;;;164.15;157.07;;;12.20;99.90;;;;;;4988275;28;20069;-72
2023/05/10 06:44:33;;;;;;;177.18;169.75;;;12.20;99.90;;;;;;4973522;28;20088;-72
2023/05/10 06:46:58;;;;;;;184.70;176.93;;;12.20;99.90;;;;;;4978504;28;20081;-72
2023/05/10 06:49:24;;;;;;;131.38;125.85;;;12.20;99.90;;;;;;4986199;28;20450;-72
2023/05/10 06:51:49;;;;;;;119.00;114.10;;;12.20;99.90;;;;;;4972332;28;20038;-74
2023/05/10 06:54:15;;;;;;;105.18;100.68;;;12.20;99.90;;;;;;4987876;28;20046;-74
2023/05/10 06:56:40;;;;;;;99.82;95.30;;;12.20;99.90;;;;;;4986926;28;20140;-75
2023/05/10 06:59:07;;;;;;;126.43;120.65;;;12.20;99.90;;;;;;4984332;28;20644;-73
2023/05/10 07:01:32;;;;;;;118.40;113.43;;;12.20;99.90;;;;;;4985053;28;20046;-74
2023/05/10 07:03:58;;;;;;;111.13;106.45;;;12.30;99.90;;;;;;4984479;28;20455;-73
2023/05/10 07:06:23;;;;;;;123.30;118.13;;;12.30;99.90;;;;;;4985746;28;20125;-72
2023/05/10 07:08:49;;;;;;;196.07;187.85;;;12.30;99.90;;;;;;4987219;28;20837;-73
2023/05/10 07:11:14;;;;;;;192.40;184.45;;;12.30;99.90;;;;;;4968081;28;20042;-73
2023/05/10 07:13:43;;;;;;;126.43;121.00;;;12.40;99.90;;;;;;4985035;28;20483;-73
2023/05/10 07:16:09;;;;;;;161.30;154.40;;;12.50;99.90;;;;;;4983948;28;20040;-73
2023/05/10 07:18:35;;;;;;;198.68;190.43;;;12.50;99.90;;;;;;4987475;28;20170;-73
2023/05/10 07:21:01;;;;;;;185.63;177.63;;;12.60;99.90;;;;;;4987616;28;20046;-73
2023/05/10 07:23:27;;;;;;;171.00;163.80;;;12.60;99.90;;;;;;4972405;28;20061;-74
2023/05/10 07:25:53;;;;;;;52.85;50.25;;;12.70;99.90;;;;;;4987153;28;20046;-73
2023/05/10 07:28:19;;;;;;;55.72;52.97;;;12.70;99.90;;;;;;4987568;28;20181;-73
2023/05/10 07:30:45;;;;;;;57.58;54.63;;;12.70;99.90;;;;;;4988320;28;20125;-73
2023/05/10 07:33:13;;;;;;;85.53;81.57;;;12.70;99.90;;;;;;4987570;28;20096;-73
2023/05/10 07:35:39;;;;;;;80.18;75.72;;;12.70;99.90;;;;;;4978585;28;20046;-73
2023/05/10 07:38:05;;;;;;;40.60;38.30;;;12.80;99.90;;;;;;4986460;28;20104;-73
2023/05/10 07:40:31;;;;;;;38.97;36.58;;;12.80;99.90;;;;;;4978354;28;20043;-73
2023/05/10 07:42:57;;;;;;;50.05;47.40;;;12.70;99.90;;;;;;4966477;28;20043;-73
2023/05/10 07:45:23;;;;;;;52.55;49.50;;;12.70;99.90;;;;;;4984387;28;20096;-72
2023/05/10 07:47:49;;;;;;;45.88;43.35;;;12.70;99.90;;;;;;4984940;28;20375;-73
2023/05/10 07:50:15;;;;;;;56.25;53.20;;;12.80;99.90;;;;;;4985738;28;20061;-72
2023/05/10 07:52:41;;;;;;;43.65;40.97;;;12.80;99.90;;;;;;4982180;28;20035;-72
2023/05/10 07:55:07;;;;;;;51.72;48.85;;;12.80;99.90;;;;;;4976988;28;20593;-73
2023/05/10 07:57:34;;;;;;;41.17;38.67;;;12.70;99.90;;;;;;4976139;28;20403;-73
2023/05/10 07:59:59;;;;;;;68.85;65.28;;;12.80;99.90;;;;;;4987327;28;20384;-72
2023/05/10 08:02:25;;;;;;;54.80;51.85;;;12.70;99.90;;;;;;4970996;28;20054;-73
2023/05/10 08:04:51;;;;;;;45.30;42.70;;;12.80;99.90;;;;;;4987666;28;20513;-72
2023/05/10 08:07:17;;;;;;;50.58;47.83;;;12.80;99.90;;;;;;4984403;28;20121;-73
2023/05/10 08:09:42;;;;;;;66.13;62.47;;;12.80;99.90;;;;;;5003373;28;20088;-72
2023/05/10 08:12:08;;;;;;;61.03;57.78;;;12.80;99.90;;;;;;4979375;28;20089;-73
2023/05/10 08:14:36;;;;;;;108.25;103.20;;;12.90;99.90;;;;;;4981849;28;20721;-73
2023/05/10 08:17:02;;;;;;;42.05;39.65;;;13.00;99.90;;;;;;4970294;28;20042;-73
2023/05/10 08:19:27;;;;;;;38.05;35.75;;;13.00;99.90;;;;;;4987214;28;20046;-73
2023/05/10 08:21:55;;;;;;;43.03;40.33;;;13.10;99.90;;;;;;4986520;28;20101;-72
2023/05/10 08:24:21;;;;;;;39.00;36.72;;;13.10;99.90;;;;;;4981850;28;20038;-72
2023/05/10 08:26:47;;;;;;;46.08;43.58;;;13.10;99.90;;;;;;4987003;28;20046;-72
2023/05/10 08:29:13;;;;;;;47.75;45.05;;;13.20;99.90;;;;;;4977907;28;20041;-72
2023/05/10 08:31:39;;;;;;;41.60;39.10;;;13.20;99.90;;;;;;4986720;28;20042;-73
2023/05/10 08:34:05;;;;;;;42.08;39.50;;;13.20;99.90;;;;;;4987135;28;20145;-72
2023/05/10 08:36:31;;;;;;;46.50;43.53;;;13.30;99.90;;;;;;4986714;28;20074;-73
2023/05/10 08:38:57;;;;;;;45.80;42.70;;;13.30;99.90;;;;;;4987488;28;20169;-72
2023/05/10 08:41:25;;;;;;;73.00;69.38;;;13.20;99.90;;;;;;4986069;28;20150;-72
2023/05/10 08:43:52;;;;;;;74.53;70.82;;;13.20;99.90;;;;;;4985915;28;20049;-72
2023/05/10 08:46:19;;;;;;;87.30;83.07;;;13.20;99.90;;;;;;4977851;28;20054;-73
2023/05/10 08:48:47;;;;;;;77.65;73.75;;;13.20;99.90;;;;;;4985226;28;20045;-73
2023/05/10 08:51:19;;;;;;;50.53;47.10;;;13.20;99.90;;;;;;4984557;28;20106;-72
2023/05/10 08:53:45;;;;;;;56.40;53.33;;;13.20;99.90;;;;;;4985404;28;20077;-72
2023/05/10 08:56:11;;;;;;;44.47;41.78;;;13.30;99.90;;;;;;4976812;28;20038;-72
2023/05/10 08:58:38;;;;;;;59.17;55.83;;;13.40;99.90;;;;;;4967094;28;20506;-73
2023/05/10 09:01:05;;;;;;;50.25;47.35;;;13.50;99.90;;;;;;4986820;28;20419;-72
2023/05/10 09:03:32;;;;;;;62.05;58.75;;;13.60;99.90;;;;;;4972181;28;20046;-72
2023/05/10 09:05:57;;;;;;;70.70;67.05;;;13.60;99.90;;;;;;4985597;28;20046;-72
2023/05/10 09:08:27;;;;;;;37.00;34.72;;;13.60;99.90;;;;;;4970086;28;20042;-72
2023/05/10 09:10:54;;;;;;;50.58;47.67;;;13.60;99.90;;;;;;4980998;28;20038;-72
2023/05/10 09:13:22;;;;;;;44.03;41.42;;;13.50;99.90;;;;;;4980706;28;20055;-72
2023/05/10 09:15:48;;;;;;;43.33;40.92;;;13.50;99.90;;;;;;4980259;28;20046;-72
2023/05/10 09:18:14;;;;;;;48.63;45.97;;;13.50;99.90;;;;;;4986714;28;20069;-72
2023/05/10 09:20:40;;;;;;;51.63;48.92;;;13.60;99.90;;;;;;4985736;28;20143;-73
2023/05/10 09:23:06;;;;;;;50.67;47.70;;;13.70;99.90;;;;;;4955707;28;20065;-73
2023/05/10 09:25:35;;;;;;;54.75;51.95;;;13.90;99.90;;;;;;4985128;28;20073;-72
2023/05/10 09:28:00;;;;;;;39.95;37.58;;;14.10;99.90;;;;;;4986598;28;20161;-72
2023/05/10 09:30:27;;;;;;;39.72;37.30;;;14.30;99.90;;;;;;4970059;28;20133;-72
2023/05/10 09:32:54;;;;;;;39.75;37.33;;;14.30;99.90;;;;;;4988302;28;20450;-72
2023/05/10 09:35:21;;;;;;;37.95;35.65;;;14.40;99.90;;;;;;4976884;28;20550;-72
2023/05/10 09:37:49;;;;;;;37.92;35.70;;;14.30;99.90;;;;;;4975277;28;20038;-72
2023/05/10 09:40:21;;;;;;;42.75;40.35;;;14.40;99.90;;;;;;4989599;28;20112;-72
2023/05/10 09:43:00;;;;;;;37.90;35.45;;;14.40;99.90;;;;;;4989766;28;20054;-72
2023/05/10 09:45:31;;;;;;;44.92;42.45;;;14.40;99.90;;;;;;4986566;28;20042;-72
2023/05/10 09:47:58;;;;;;;42.88;40.28;;;14.50;99.90;;;;;;4980927;28;20046;-72
2023/05/10 09:50:25;;;;;;;41.53;38.72;;;14.50;99.90;;;;;;4977239;28;20042;-72
2023/05/10 09:52:59;;;;;;;43.60;41.10;;;14.40;99.90;;;;;;4984501;28;20487;-72
2023/05/10 09:55:38;;;;;;;33.25;31.05;;;14.40;99.90;;;;;;4987330;28;20046;-72
2023/05/10 09:58:04;;;;;;;35.28;33.08;;;14.30;99.90;;;;;;4987109;28;20050;-74
2023/05/10 10:00:38;;;;;;;47.67;45.20;;;14.40;99.90;;;;;;4984973;28;20050;-72
2023/05/10 10:03:05;;;;;;;38.17;36.08;;;14.30;99.90;;;;;;4985987;28;20054;-73
2023/05/10 10:05:33;;;;;;;35.05;33.00;;;14.30;99.90;;;;;;4986347;28;20050;-72
2023/05/10 10:07:59;;;;;;;37.90;35.72;;;14.30;99.90;;;;;;4985421;28;20039;-73
2023/05/10 10:10:26;;;;;;;49.67;47.05;;;14.30;99.90;;;;;;4986490;28;20057;-73
2023/05/10 10:12:52;;;;;;;54.60;51.83;;;14.50;99.90;;;;;;4987023;28;20050;-72
2023/05/10 10:15:18;;;;;;;45.97;43.65;;;14.50;99.90;;;;;;4987828;28;20490;-72
2023/05/10 10:17:45;;;;;;;44.88;42.53;;;14.60;99.90;;;;;;4988358;28;20050;-73
2023/05/10 10:20:11;;;;;;;39.85;37.65;;;14.60;99.90;;;;;;4985056;28;20042;-72
2023/05/10 10:22:37;;;;;;;33.17;31.23;;;14.70;99.90;;;;;;4987534;28;20046;-72
2023/05/10 10:25:04;;;;;;;39.90;37.72;;;14.80;99.90;;;;;;4972427;28;20570;-72
2023/05/10 10:27:52;;;;;;;41.28;38.95;;;14.90;99.90;;;;;;4987475;28;20038;-72
2023/05/10 10:30:43;;;;;;;46.97;44.42;;;14.90;99.90;;;;;;4989823;28;20038;-72
2023/05/10 10:33:54;;;;;;;49.92;47.38;;;15.00;99.90;;;;;;4988598;28;20110;-72
2023/05/10 10:36:20;;;;;;;30.58;28.70;;;15.10;99.90;;;;;;4962553;28;20054;-72
2023/05/10 10:38:46;;;;;;;58.17;55.22;;;15.30;99.90;;;;;;4982037;28;20079;-72
2023/05/10 10:41:31;;;;;;;47.88;45.42;;;15.40;99.90;;;;;;4979733;28;20078;-72
2023/05/10 10:44:22;;;;;;;59.63;56.70;;;15.50;99.90;;;;;;5003156;28;20045;-73
2023/05/10 10:47:18;;;;;;;50.50;47.72;;;15.50;99.90;;;;;;4971297;28;20052;-72
2023/05/10 10:49:48;;;;;;;42.42;39.97;;;15.40;99.90;;;;;;4979188;28;20061;-73
2023/05/10 10:52:32;;;;;;;40.22;38.03;;;15.20;99.90;;;;;;4980521;28;20054;-72
2023/05/10 10:55:09;;;;;;;41.78;39.25;;;15.10;99.90;;;;;;4983071;28;20069;-72
2023/05/10 10:57:40;;;;;;;51.33;48.47;;;14.90;99.90;;;;;;4981898;28;20348;-72
2023/05/10 11:00:32;;;;;;;52.75;49.95;;;14.80;99.90;;;;;;4977779;28;20414;-73
2023/05/10 11:03:14;;;;;;;33.80;31.80;;;14.70;99.90;;;;;;4977857;28;20331;-72
2023/05/10 11:05:43;;;;;;;53.45;50.58;;;14.70;99.90;;;;;;4977091;28;20055;-72
2023/05/10 11:08:27;;;;;;;54.88;52.05;;;14.70;99.90;;;;;;4977762;28;20042;-73
2023/05/10 11:10:59;;;;;;;51.95;49.05;;;14.70;99.90;;;;;;4980849;28;20053;-72
2023/05/10 11:13:51;;;;;;;54.42;51.47;;;14.70;99.90;;;;;;4977211;28;20042;-73
2023/05/10 11:16:20;;;;;;;47.58;44.78;;;14.70;99.90;;;;;;4998263;28;20054;-72
2023/05/10 11:19:07;;;;;;;42.45;39.97;;;14.70;99.90;;;;;;4980688;28;20046;-72
2023/05/10 11:21:34;;;;;;;47.95;45.00;;;14.60;99.90;;;;;;4966418;28;20040;-72
2023/05/10 11:24:05;;;;;;;55.55;52.53;;;14.60;99.90;;;;;;4977238;28;20495;-72
2023/05/10 11:26:32;;;;;;;58.35;55.05;;;14.60;99.90;;;;;;4984894;28;20125;-72
2023/05/10 11:29:00;;;;;;;63.42;59.25;;;14.50;99.90;;;;;;4985642;28;20405;-72
2023/05/10 11:31:26;;;;;;;57.95;54.50;;;14.50;99.90;;;;;;4980302;28;20050;-72
2023/05/10 11:33:57;;;;;;;65.85;62.33;;;14.50;99.90;;;;;;4984892;28;20398;-72
2023/05/10 11:36:33;;;;;;;60.97;57.53;;;14.50;99.90;;;;;;4980216;28;20133;-72
2023/05/10 11:38:59;;;;;;;54.15;50.90;;;14.50;99.90;;;;;;4980165;28;20065;-72
2023/05/10 11:41:26;;;;;;;59.72;55.95;;;14.50;99.90;;;;;;4977896;28;20042;-72
2023/05/10 11:43:56;;;;;;;54.70;51.38;;;14.50;99.90;;;;;;4985403;28;20045;-72
2023/05/10 11:46:23;;;;;;;90.57;86.13;;;14.60;99.90;;;;;;4986161;28;20057;-72
2023/05/10 11:48:51;;;;;;;45.72;42.33;;;14.60;99.90;;;;;;4968610;28;20057;-73
2023/05/10 11:51:21;;;;;;;58.55;54.88;;;14.60;99.90;;;;;;4985115;28;20398;-73
2023/05/10 11:53:46;;;;;;;45.90;42.50;;;14.70;99.90;;;;;;4984097;28;20403;-72
2023/05/10 11:56:12;;;;;;;43.33;40.58;;;14.80;99.90;;;;;;4980001;28;20042;-73
2023/05/10 11:58:39;;;;;;;39.13;36.42;;;14.80;99.90;;;;;;4978875;28;20129;-72
2023/05/10 12:01:07;;;;;;;43.05;40.40;;;15.00;99.90;;;;;;4976582;28;20558;-72
2023/05/10 12:03:33;;;;;;;48.45;45.58;;;15.10;99.90;;;;;;4992071;28;20042;-72
2023/05/10 12:06:00;;;;;;;57.72;54.08;;;15.20;99.90;;;;;;4979531;28;20442;-72
2023/05/10 12:08:28;;;;;;;55.72;52.22;;;15.30;99.90;;;;;;4978394;28;20165;-72
2023/05/10 12:11:07;;;;;;;62.97;59.40;;;15.30;99.90;;;;;;4964348;28;20048;-72
2023/05/10 12:13:38;;;;;;;31.60;29.50;;;15.20;99.90;;;;;;4976020;28;20048;-71
2023/05/10 12:16:16;;;;;;;54.88;51.97;;;15.10;99.90;;;;;;4976338;28;20746;-72
2023/05/10 12:18:42;;;;;;;51.63;48.60;;;15.00;99.90;;;;;;4978185;28;20471;-73
2023/05/10 12:21:12;;;;;;;57.40;54.25;;;15.00;99.90;;;;;;4978468;28;20161;-72
2023/05/10 12:23:39;;;;;;;57.25;54.00;;;14.90;99.90;;;;;;4972015;28;20403;-73
2023/05/10 12:26:05;;;;;;;43.85;41.20;;;15.00;99.90;;;;;;4974786;28;20117;-72
2023/05/10 12:28:32;;;;;;;34.33;32.03;;;15.00;99.90;;;;;;4973769;28;20046;-72
2023/05/10 12:30:59;;;;;;;32.25;30.17;;;15.10;99.90;;;;;;4972985;28;20168;-73